Beulah, New Mexico
Current Conditions -  °F | °C
As of 2:53 AM on Saturday 20 Dec 2014 (Local Time) from KLVS Reporting Station
Clear Clear  
Wind Chill: 21°   Ceiling: Unl
Heat Index: 28°   Visibility: 10mi
Dew Point: 10°   Wind: 7mph
Humidity: 47%   Direction: 340°NNW
Pressure: 30.06"   Gusts: NA
Location:  35.7797°N, 105.164°W
Report Text: KLVS 200953Z AUTO 34006KT 10SM CLR M02/M12 A3006 RMK AO2 SLP154 T10221122
Loading
Personal Weather Stations






























Interactive Weather Map New forecast layout! Learn more

10-Day Weather Forecast

Advertisements
Track Severe Weather on mobile